Accueil
METAR-TAF:

METAR-TAF

Aéroports :

Aéroport domestique de Najran

Najran, Arabie saoudite

latitude: 17-37N, longitude: 044-25E, altitude: 1212 m

Observation

Le bulletin a été fait il y a 22 minutes, à 03:00 UTC
Vent 4 kt de nord/nord-ouest
Température 23°C
Humidité 19%
Pression 1016 hPa
Visibilité 10 km ou plus
pas de nuages en-dessous de 1500 mètres et pas de cumulonimbus.

METAR: OENG 130300Z 33004KT CAVOK 23/M02 Q1016 NOSIG

Heure: 06:22 (03:22 UTC)

Prévision

Le bulletin a été fait il y a 4 heures et 22 minutes, à 23:00 UTC
Prévision valable du 13 à 00 UTC au 14 à 06 UTC
Vent 3 kt de direction variable
Visibilité 10 km ou plus
pas de nuages en-dessous de 1500 mètres et pas de cumulonimbus.
Evoluant progressivement
du 13 à 08 UTC au 13 à 10 UTC
Vent 12 kt de est/sud-est
Evoluant progressivement
du 13 à 18 UTC au 13 à 20 UTC
Vent 12 kt de ouest

TAF: OENG 122300Z 1300/1406 VRB03KT CAVOK BECMG 1308/1310 12012KT BECMG 1318/1320 26012KT

Observations et prévisions météorologiques de plus de 4000 aéroports (messages METAR et TAF).

Les stations disponibles sont représentées par des disques jaunes et rouges sur la carte.

Passer la souris dessus pour voir le nom de la station.

Cliquer dessus pour voir les observations et prévisions météorologiques.

Pour changer de carte: cliquez sur les boutons verts avec une croix noire pour zoomer, sur le bouton vert avec un tiret pour effectuer un zoom arrière, ou sur les flèches vertes pour les cartes adjacentes.


METAR-TAF: